createdAt,value
2023-06-05T00:00:50.723Z,49.90
2023-06-05T00:03:19.493Z,49.20
2023-06-05T00:05:46.488Z,50.31
2023-06-05T00:08:13.492Z,48.98
2023-06-05T00:10:40.058Z,50.18
2023-06-05T00:13:06.845Z,49.16
2023-06-05T00:15:36.848Z,50.42
2023-06-05T00:18:05.246Z,50.86
2023-06-05T00:20:32.205Z,51.71
2023-06-05T00:22:58.789Z,51.56
2023-06-05T00:25:25.392Z,54.78
2023-06-05T00:27:52.004Z,51.87
2023-06-05T00:30:18.605Z,51.70
2023-06-05T00:32:45.230Z,52.41
2023-06-05T00:35:11.839Z,50.76
2023-06-05T00:37:38.368Z,52.34
2023-06-05T00:40:06.747Z,51.68
2023-06-05T00:42:33.568Z,51.19
2023-06-05T00:45:00.109Z,52.17
2023-06-05T00:47:27.077Z,51.35
2023-06-05T00:49:53.729Z,52.59
2023-06-05T00:52:20.567Z,51.42
2023-06-05T00:54:47.343Z,51.04
2023-06-05T00:57:13.973Z,50.74
2023-06-05T00:59:41.711Z,51.84
2023-06-05T01:02:08.335Z,51.09
2023-06-05T01:04:34.965Z,50.69
2023-06-05T01:07:02.396Z,50.68
2023-06-05T01:09:29.232Z,50.76
2023-06-05T01:11:58.644Z,50.46
2023-06-05T01:14:31.999Z,50.55
2023-06-05T01:17:02.013Z,50.98
2023-06-05T01:19:33.795Z,50.57
2023-06-05T01:22:00.675Z,50.44
2023-06-05T01:24:29.006Z,50.68
2023-06-05T01:27:06.082Z,51.52
2023-06-05T01:29:38.892Z,51.37
2023-06-05T01:32:13.416Z,50.90
2023-06-05T01:34:44.570Z,50.69
2023-06-05T01:37:15.998Z,50.65
2023-06-05T01:39:43.230Z,51.11
2023-06-05T01:42:10.206Z,51.57
2023-06-05T01:44:36.835Z,51.72
2023-06-05T01:47:03.529Z,54.33
2023-06-05T01:49:30.159Z,59.08
2023-06-05T01:51:56.842Z,61.44
2023-06-05T01:54:24.515Z,61.50
2023-06-05T01:56:51.551Z,58.30
2023-06-05T01:59:18.157Z,58.35
2023-06-05T02:01:45.511Z,57.46
2023-06-05T02:04:12.667Z,55.35
2023-06-05T02:06:45.397Z,54.68
2023-06-05T02:09:11.956Z,56.19
2023-06-05T02:11:43.788Z,55.68
2023-06-05T02:14:14.196Z,55.56
2023-06-05T02:16:41.614Z,57.45
2023-06-05T02:19:08.337Z,56.22
2023-06-05T02:21:35.140Z,55.10
2023-06-05T02:24:01.843Z,54.95
2023-06-05T02:26:28.965Z,57.10
2023-06-05T02:28:56.052Z,57.39
2023-06-05T02:31:26.633Z,61.52
2023-06-05T02:33:53.916Z,66.50
2023-06-05T02:36:20.531Z,62.99
2023-06-05T02:38:47.363Z,64.10
2023-06-05T02:41:13.974Z,63.59
2023-06-05T02:43:40.514Z,59.13
2023-06-05T02:46:07.108Z,57.89
2023-06-05T02:48:33.679Z,56.53
2023-06-05T02:51:00.306Z,56.05
2023-06-05T02:53:27.006Z,56.40
2023-06-05T02:55:54.295Z,56.27
2023-06-05T02:58:22.812Z,56.18
2023-06-05T03:00:51.776Z,56.25
2023-06-05T03:03:18.533Z,55.91
2023-06-05T03:05:45.579Z,55.46
2023-06-05T03:08:12.392Z,55.78
2023-06-05T03:10:38.990Z,55.75
2023-06-05T03:13:05.731Z,59.48
2023-06-05T03:15:32.430Z,58.38
2023-06-05T03:17:59.120Z,57.20
2023-06-05T03:20:26.625Z,57.38
2023-06-05T03:22:53.282Z,62.50
2023-06-05T03:25:19.873Z,64.14
2023-06-05T03:27:47.521Z,66.44
2023-06-05T03:30:17.934Z,68.27
2023-06-05T03:32:44.819Z,69.33
2023-06-05T03:35:11.393Z,67.30
2023-06-05T03:37:37.994Z,61.89
2023-06-05T03:40:06.078Z,60.76
2023-06-05T03:42:32.709Z,59.39
2023-06-05T03:44:59.329Z,61.24
2023-06-05T03:47:25.940Z,61.83
2023-06-05T03:49:53.779Z,61.98
2023-06-05T03:52:24.632Z,60.49
2023-06-05T03:54:54.641Z,59.11
2023-06-05T03:57:21.658Z,58.53
2023-06-05T03:59:48.398Z,58.32
2023-06-05T04:02:15.447Z,58.24
2023-06-05T04:04:42.035Z,58.41
2023-06-05T04:07:08.639Z,58.13
2023-06-05T04:09:35.222Z,57.46
2023-06-05T04:12:02.010Z,59.09
2023-06-05T04:14:28.589Z,59.98
2023-06-05T04:16:55.184Z,60.42
2023-06-05T04:19:22.560Z,59.64
2023-06-05T04:21:49.446Z,63.27
2023-06-05T04:24:16.187Z,64.39
2023-06-05T04:26:42.786Z,65.81
2023-06-05T04:29:17.025Z,61.96
2023-06-05T04:31:44.343Z,64.73
2023-06-05T04:34:11.008Z,66.47
2023-06-05T04:36:37.741Z,65.96
2023-06-05T04:39:15.756Z,62.80
2023-06-05T04:41:46.297Z,63.69
2023-06-05T04:44:14.220Z,61.69
2023-06-05T04:46:41.045Z,60.49
2023-06-05T04:49:07.870Z,59.72
2023-06-05T04:51:34.573Z,58.64
2023-06-05T04:54:01.517Z,58.52
2023-06-05T04:56:28.058Z,59.61
2023-06-05T04:58:54.775Z,63.08
2023-06-05T05:01:21.597Z,59.99
2023-06-05T05:03:49.253Z,60.68
2023-06-05T05:06:16.311Z,63.56
2023-06-05T05:08:44.485Z,62.80
2023-06-05T05:11:11.263Z,62.95
2023-06-05T05:13:38.009Z,62.26
2023-06-05T05:16:04.734Z,61.96
2023-06-05T05:18:31.497Z,61.10
2023-06-05T05:20:58.060Z,63.22
2023-06-05T05:23:24.581Z,64.12
2023-06-05T05:25:51.234Z,62.63
2023-06-05T05:28:17.827Z,62.49
2023-06-05T05:30:44.365Z,61.70
2023-06-05T05:33:11.007Z,61.51
2023-06-05T05:35:37.563Z,60.46
2023-06-05T05:38:04.261Z,62.35
2023-06-05T05:40:31.174Z,60.74
2023-06-05T05:42:57.703Z,60.48
2023-06-05T05:45:24.213Z,59.80
2023-06-05T05:47:50.788Z,60.50
2023-06-05T05:50:17.398Z,60.91
2023-06-05T05:52:48.716Z,61.79
2023-06-05T05:55:15.368Z,63.31
2023-06-05T05:57:41.943Z,62.83
2023-06-05T06:00:13.450Z,63.18
2023-06-05T06:02:40.583Z,62.58
2023-06-05T06:05:07.370Z,61.91
2023-06-05T06:07:34.018Z,62.71
2023-06-05T06:10:00.621Z,62.22
2023-06-05T06:12:28.579Z,61.25
2023-06-05T06:14:58.132Z,60.96
2023-06-05T06:17:25.190Z,60.35
2023-06-05T06:19:52.492Z,59.64
2023-06-05T06:22:19.434Z,59.94
2023-06-05T06:24:47.459Z,61.05
2023-06-05T06:29:51.215Z,61.02
2023-06-05T06:32:18.479Z,61.83
2023-06-05T06:34:46.215Z,60.83
2023-06-05T06:37:16.512Z,59.34
2023-06-05T06:39:43.529Z,59.08
2023-06-05T06:42:11.454Z,60.20
2023-06-05T06:44:38.290Z,59.10
2023-06-05T06:47:04.986Z,59.27
2023-06-05T06:49:31.567Z,59.29
2023-06-05T06:51:58.287Z,57.88
2023-06-05T06:54:26.640Z,58.54
2023-06-05T06:56:53.184Z,58.38
2023-06-05T06:59:19.710Z,58.57
2023-06-05T07:01:47.344Z,59.13
2023-06-05T07:04:21.397Z,58.90
2023-06-05T07:06:49.080Z,58.80
2023-06-05T07:09:15.740Z,58.66
2023-06-05T07:11:42.286Z,58.74
2023-06-05T07:14:08.868Z,59.62
2023-06-05T07:16:35.422Z,58.68
2023-06-05T07:19:01.976Z,59.57
2023-06-05T07:21:28.814Z,58.89
2023-06-05T07:23:55.755Z,57.10
2023-06-05T07:26:22.784Z,59.45
2023-06-05T07:28:50.599Z,58.91
2023-06-05T07:31:18.570Z,58.22
2023-06-05T07:33:45.162Z,57.26
2023-06-05T07:36:11.826Z,57.15
2023-06-05T07:38:39.755Z,57.22
2023-06-05T07:41:06.862Z,56.55
2023-06-05T07:43:33.463Z,58.07
2023-06-05T07:46:00.073Z,58.32
2023-06-05T07:48:26.913Z,56.88
2023-06-05T07:50:53.446Z,57.67
2023-06-05T07:53:20.003Z,58.09
2023-06-05T07:55:46.592Z,57.86
2023-06-05T07:58:13.133Z,57.93
2023-06-05T08:00:39.674Z,58.55
2023-06-05T08:03:07.830Z,58.46
2023-06-05T08:05:36.885Z,58.86
2023-06-05T08:08:03.712Z,58.06
2023-06-05T08:10:30.230Z,57.68
2023-06-05T08:12:56.791Z,56.84
2023-06-05T08:15:23.320Z,58.37
2023-06-05T08:17:50.039Z,58.03
2023-06-05T08:20:16.926Z,57.40
2023-06-05T08:22:44.084Z,57.40
2023-06-05T08:25:10.638Z,57.34
2023-06-05T08:27:37.265Z,57.66
2023-06-05T08:30:04.906Z,57.15
2023-06-05T08:32:31.610Z,58.08
2023-06-05T08:34:58.410Z,56.67
2023-06-05T08:37:25.219Z,58.33
2023-06-05T08:39:52.071Z,57.37
2023-06-05T08:42:21.848Z,57.75
2023-06-05T08:45:01.042Z,57.93
2023-06-05T08:47:30.433Z,58.00
2023-06-05T08:49:57.581Z,58.49
2023-06-05T08:52:26.312Z,58.87
2023-06-05T08:54:53.103Z,58.14
2023-06-05T08:57:19.816Z,57.95
2023-06-05T08:59:47.019Z,59.25
2023-06-05T09:02:13.579Z,59.46
2023-06-05T09:04:40.110Z,59.92
2023-06-05T09:07:08.207Z,59.72
2023-06-05T09:09:35.360Z,58.98
2023-06-05T09:12:02.807Z,59.08
2023-06-05T09:14:29.365Z,58.59
2023-06-05T09:16:55.912Z,58.41
2023-06-05T09:19:26.344Z,58.86
2023-06-05T09:21:53.600Z,58.45
2023-06-05T09:24:21.304Z,58.35
2023-06-05T09:26:59.716Z,58.92
2023-06-05T09:29:33.467Z,58.04
2023-06-05T09:32:07.512Z,58.09
2023-06-05T09:34:35.165Z,57.12
2023-06-05T09:37:02.388Z,58.05
2023-06-05T09:39:29.867Z,57.58
2023-06-05T09:41:57.302Z,57.86
2023-06-05T09:44:24.528Z,57.29
2023-06-05T09:47:11.181Z,57.42
2023-06-05T09:49:41.006Z,58.05
2023-06-05T09:52:08.752Z,57.17
2023-06-05T09:54:37.266Z,57.69
2023-06-05T09:57:04.986Z,57.46
2023-06-05T09:59:35.592Z,56.79
2023-06-05T10:02:03.760Z,56.64
2023-06-05T10:04:31.282Z,56.32
2023-06-05T10:07:02.287Z,55.81
2023-06-05T10:09:30.741Z,55.45
2023-06-05T10:11:58.902Z,55.81
2023-06-05T10:14:25.564Z,56.05
2023-06-05T10:16:53.029Z,55.57
2023-06-05T10:19:21.050Z,55.57
2023-06-05T10:21:48.604Z,55.69
2023-06-05T10:24:23.463Z,56.20
2023-06-05T10:26:57.847Z,55.69
2023-06-05T10:29:33.563Z,55.53
2023-06-05T10:32:04.151Z,55.75
2023-06-05T10:34:49.947Z,56.38
2023-06-05T10:37:54.960Z,55.83
2023-06-05T10:40:21.806Z,55.57
2023-06-05T10:42:48.398Z,54.77
2023-06-05T10:45:30.341Z,54.57
2023-06-05T10:47:56.901Z,54.53
2023-06-05T10:50:26.238Z,54.28
2023-06-05T10:52:54.087Z,54.11
2023-06-05T10:55:21.408Z,53.71
2023-06-05T10:58:02.962Z,53.99
2023-06-05T11:00:30.049Z,54.52
2023-06-05T11:02:58.390Z,53.95
2023-06-05T11:05:27.046Z,54.38
2023-06-05T11:08:14.518Z,54.48
2023-06-05T11:10:59.646Z,54.32
2023-06-05T11:13:26.474Z,54.58
2023-06-05T11:15:57.620Z,54.13
2023-06-05T11:18:27.756Z,54.40
2023-06-05T11:20:54.707Z,54.46
2023-06-05T11:23:22.335Z,56.38
2023-06-05T11:25:50.129Z,55.59
2023-06-05T11:28:36.590Z,55.75
2023-06-05T11:31:03.285Z,55.05
2023-06-05T11:33:30.444Z,54.97
2023-06-05T11:36:00.896Z,54.79
2023-06-05T11:38:27.437Z,55.23
2023-06-05T11:40:54.890Z,55.04
2023-06-05T11:43:22.329Z,54.76
2023-06-05T11:45:58.864Z,55.35
2023-06-05T11:48:26.534Z,57.83
2023-06-05T11:50:57.769Z,59.84
2023-06-05T11:53:25.146Z,60.48
2023-06-05T11:55:52.371Z,61.60
2023-06-05T11:58:25.379Z,61.57
2023-06-05T12:00:52.606Z,61.57
2023-06-05T12:03:22.682Z,59.55
2023-06-05T12:05:49.810Z,60.22
2023-06-05T12:08:22.941Z,61.70
2023-06-05T12:10:49.506Z,63.29
2023-06-05T12:13:16.377Z,60.38
2023-06-05T12:15:42.939Z,60.38
2023-06-05T12:18:09.673Z,61.27
2023-06-05T12:20:41.235Z,59.65
2023-06-05T12:23:08.203Z,59.12
2023-06-05T12:25:34.878Z,58.10
2023-06-05T12:28:01.424Z,58.65
2023-06-05T12:30:40.119Z,58.40
2023-06-05T12:33:06.785Z,58.40
2023-06-05T12:35:33.384Z,59.61
2023-06-05T12:38:01.503Z,63.05
2023-06-05T12:40:36.827Z,62.53
2023-06-05T12:43:04.465Z,60.71
2023-06-05T12:45:32.117Z,59.65
2023-06-05T12:47:58.789Z,60.30
2023-06-05T12:50:27.250Z,59.17
2023-06-05T12:52:53.846Z,60.08
2023-06-05T12:55:20.480Z,59.50
2023-06-05T12:57:47.196Z,60.07
2023-06-05T13:00:15.136Z,59.99
2023-06-05T13:02:46.329Z,58.79
2023-06-05T13:05:13.142Z,58.83
2023-06-05T13:07:40.420Z,59.42
2023-06-05T13:10:07.496Z,61.47
2023-06-05T13:12:34.221Z,60.87
2023-06-05T13:15:05.039Z,60.30
2023-06-05T13:17:34.611Z,60.31
2023-06-05T13:20:01.491Z,61.43
2023-06-05T13:22:28.249Z,63.68
2023-06-05T13:24:54.837Z,61.32
2023-06-05T13:27:22.227Z,60.20
2023-06-05T13:29:48.876Z,63.85
2023-06-05T13:32:15.522Z,64.22
2023-06-05T13:34:42.109Z,64.81
2023-06-05T13:37:14.694Z,65.24
2023-06-05T13:39:41.691Z,67.57
2023-06-05T13:42:08.346Z,65.02
2023-06-05T13:44:35.553Z,63.30
2023-06-05T13:47:04.393Z,62.58
2023-06-05T13:49:32.369Z,63.47
2023-06-05T13:51:58.991Z,62.56
2023-06-05T13:54:25.580Z,62.81
2023-06-05T13:56:52.911Z,62.34
2023-06-05T13:59:19.619Z,61.87
2023-06-05T14:01:46.302Z,62.99
2023-06-05T14:04:12.926Z,63.08
2023-06-05T14:06:41.018Z,65.77
2023-06-05T14:09:07.549Z,66.26
2023-06-05T14:11:34.092Z,65.17
2023-06-05T14:14:00.677Z,64.38
2023-06-05T14:16:27.307Z,62.97
2023-06-05T14:18:54.016Z,63.00
2023-06-05T14:21:20.612Z,64.17
2023-06-05T14:23:47.200Z,63.77
2023-06-05T14:26:13.787Z,63.59
2023-06-05T14:28:40.325Z,63.80
2023-06-05T14:31:06.907Z,62.34
2023-06-05T14:33:33.415Z,62.30
2023-06-05T14:36:02.066Z,61.85
2023-06-05T14:38:28.577Z,61.96
2023-06-05T14:40:55.167Z,60.87
2023-06-05T14:43:21.789Z,62.89
2023-06-05T14:45:48.463Z,63.87
2023-06-05T14:48:15.180Z,65.03
2023-06-05T14:50:41.950Z,65.31
2023-06-05T14:53:08.538Z,63.49
2023-06-05T14:55:35.045Z,64.16
2023-06-05T14:58:01.578Z,62.60
2023-06-05T15:00:28.199Z,62.60
2023-06-05T15:02:54.808Z,63.10
2023-06-05T15:05:21.625Z,62.80
2023-06-05T15:07:49.289Z,62.04
2023-06-05T15:10:17.322Z,63.63
2023-06-05T15:12:43.916Z,64.91
2023-06-05T15:15:20.861Z,63.38
2023-06-05T15:17:48.714Z,62.66
2023-06-05T15:20:15.929Z,63.25
2023-06-05T15:22:42.710Z,64.88
2023-06-05T15:25:09.345Z,67.36
2023-06-05T15:27:36.333Z,67.33
2023-06-05T15:30:03.925Z,66.40
2023-06-05T15:32:30.907Z,64.48
2023-06-05T15:34:57.660Z,65.03
2023-06-05T15:37:25.054Z,64.26
2023-06-05T15:39:52.852Z,64.42
2023-06-05T15:42:29.437Z,64.13
2023-06-05T15:45:16.620Z,63.37
2023-06-05T15:47:43.733Z,64.28
2023-06-05T15:50:11.230Z,63.68
2023-06-05T15:52:39.569Z,64.13
2023-06-05T15:55:07.850Z,64.59
2023-06-05T15:57:34.532Z,65.79
2023-06-05T16:00:01.216Z,66.10
2023-06-05T16:02:27.963Z,65.44
2023-06-05T16:04:54.523Z,64.03
2023-06-05T16:07:22.559Z,63.29
2023-06-05T16:09:49.221Z,65.74
2023-06-05T16:12:15.890Z,66.80
2023-06-05T16:14:42.418Z,63.78
2023-06-05T16:17:08.958Z,63.60
2023-06-05T16:19:35.494Z,63.61
2023-06-05T16:22:02.029Z,63.90
2023-06-05T16:24:28.582Z,65.63
2023-06-05T16:26:55.215Z,64.06
2023-06-05T16:29:21.861Z,63.57
2023-06-05T16:31:51.161Z,63.17
2023-06-05T16:34:17.788Z,62.74
2023-06-05T16:36:44.559Z,64.53
2023-06-05T16:39:16.948Z,65.13
2023-06-05T16:41:43.573Z,66.30
2023-06-05T16:44:12.234Z,64.92
2023-06-05T16:46:39.405Z,63.79
2023-06-05T16:49:06.366Z,63.37
2023-06-05T16:51:33.038Z,63.18
2023-06-05T16:53:59.602Z,62.44
2023-06-05T16:56:26.790Z,62.40
2023-06-05T16:58:53.734Z,63.80
2023-06-05T17:01:22.833Z,64.01
2023-06-05T17:03:52.994Z,64.06
2023-06-05T17:06:20.073Z,63.28
2023-06-05T17:08:47.093Z,64.92
2023-06-05T17:11:14.754Z,66.39
2023-06-05T17:13:41.339Z,66.11
2023-06-05T17:16:08.025Z,66.94
2023-06-05T17:18:34.586Z,64.87
2023-06-05T17:21:01.674Z,67.28
2023-06-05T17:23:28.308Z,67.44
2023-06-05T17:25:54.898Z,69.42
2023-06-05T17:28:21.438Z,68.97
2023-06-05T17:30:49.373Z,66.81
2023-06-05T17:33:16.203Z,66.48
2023-06-05T17:35:42.791Z,65.44
2023-06-05T17:38:09.512Z,63.67
2023-06-05T17:40:36.330Z,62.72
2023-06-05T17:43:03.111Z,62.00
2023-06-05T17:45:31.949Z,61.77
2023-06-05T17:47:58.698Z,61.29
2023-06-05T17:50:25.388Z,62.43
2023-06-05T17:52:52.026Z,61.46
2023-06-05T17:55:19.120Z,61.01
2023-06-05T17:57:52.681Z,60.95
2023-06-05T18:00:20.285Z,60.82
2023-06-05T18:02:50.350Z,60.79
2023-06-05T18:05:17.454Z,60.69
2023-06-05T18:07:44.519Z,60.55
2023-06-05T18:10:11.741Z,60.41
2023-06-05T18:12:40.006Z,60.43
2023-06-05T18:15:07.040Z,60.17
2023-06-05T18:17:33.625Z,60.17
2023-06-05T18:20:00.189Z,60.08
2023-06-05T18:22:28.040Z,59.86
2023-06-05T18:24:54.606Z,61.15
2023-06-05T18:27:21.138Z,60.42
2023-06-05T18:29:47.769Z,61.10
2023-06-05T18:32:16.335Z,60.19
2023-06-05T18:34:43.046Z,61.36
2023-06-05T18:37:09.622Z,60.15
2023-06-05T18:39:36.259Z,59.87
2023-06-05T18:42:03.027Z,59.79
2023-06-05T18:44:29.598Z,59.61
2023-06-05T18:46:56.498Z,59.52
2023-06-05T18:49:23.034Z,59.60
2023-06-05T18:51:49.766Z,60.93
2023-06-05T18:54:16.470Z,60.23
2023-06-05T18:56:42.982Z,61.70
2023-06-05T18:59:09.564Z,60.26
2023-06-05T19:01:36.284Z,60.19
2023-06-05T19:04:02.942Z,59.81
2023-06-05T19:06:29.586Z,59.42
2023-06-05T19:08:56.128Z,59.77
2023-06-05T19:11:22.795Z,59.92
2023-06-05T19:13:49.529Z,59.78
2023-06-05T19:16:16.341Z,59.24
2023-06-05T19:18:43.396Z,59.31
2023-06-05T19:21:11.355Z,59.39
2023-06-05T19:23:38.287Z,59.68
2023-06-05T19:26:04.924Z,59.37
2023-06-05T19:28:31.478Z,59.62
2023-06-05T19:30:58.040Z,59.56
2023-06-05T19:33:24.638Z,59.78
2023-06-05T19:35:51.327Z,59.89
2023-06-05T19:38:18.042Z,59.57
2023-06-05T19:40:44.656Z,59.44
2023-06-05T19:43:11.203Z,59.49
2023-06-05T19:45:37.846Z,59.45
2023-06-05T19:48:04.516Z,59.54
2023-06-05T19:50:31.548Z,59.58
2023-06-05T19:53:01.253Z,59.49
2023-06-05T19:55:28.207Z,59.68
2023-06-05T19:57:54.835Z,59.22
2023-06-05T20:00:21.494Z,59.05
2023-06-05T20:02:48.100Z,59.08
2023-06-05T20:05:15.964Z,59.19
2023-06-05T20:07:42.478Z,59.27
2023-06-05T20:10:09.167Z,59.25
2023-06-05T20:12:35.805Z,59.17
2023-06-05T20:15:02.467Z,59.17
2023-06-05T20:17:29.145Z,59.54
2023-06-05T20:19:55.752Z,59.28
2023-06-05T20:22:23.754Z,59.20
2023-06-05T20:24:50.929Z,59.07
2023-06-05T20:27:17.447Z,59.15
2023-06-05T20:29:44.401Z,60.00
2023-06-05T20:32:10.942Z,60.67
2023-06-05T20:34:37.454Z,59.99
2023-06-05T20:37:05.455Z,59.97
2023-06-05T20:39:32.612Z,60.29
2023-06-05T20:42:02.708Z,59.78
2023-06-05T20:44:30.790Z,59.60
2023-06-05T20:46:58.845Z,60.01
2023-06-05T20:49:25.504Z,59.62
2023-06-05T20:51:52.746Z,59.67
2023-06-05T20:54:19.291Z,59.47
2023-06-05T20:56:46.747Z,59.81
2023-06-05T20:59:13.559Z,59.67
2023-06-05T21:01:40.969Z,59.83
2023-06-05T21:04:07.745Z,59.78
2023-06-05T21:06:34.817Z,59.51
2023-06-05T21:09:01.368Z,59.75
2023-06-05T21:11:27.987Z,59.77
2023-06-05T21:13:54.542Z,59.75
2023-06-05T21:16:21.294Z,59.75
2023-06-05T21:18:47.949Z,60.18
2023-06-05T21:21:14.489Z,60.93
2023-06-05T21:23:41.153Z,60.50
2023-06-05T21:26:07.748Z,60.38
2023-06-05T21:28:34.290Z,60.56
2023-06-05T21:31:07.455Z,61.47
2023-06-05T21:33:37.352Z,60.84
2023-06-05T21:36:04.011Z,61.04
2023-06-05T21:38:30.543Z,61.61
2023-06-05T21:40:57.180Z,61.46
2023-06-05T21:43:23.912Z,60.59
2023-06-05T21:45:50.499Z,61.23
2023-06-05T21:48:17.261Z,61.33
2023-06-05T21:50:44.234Z,61.17
2023-06-05T21:53:10.842Z,61.41
2023-06-05T21:55:37.439Z,60.84
2023-06-05T21:58:04.020Z,61.10
2023-06-05T22:00:31.084Z,61.41
2023-06-05T22:02:57.717Z,61.60
2023-06-05T22:05:24.446Z,61.21
2023-06-05T22:07:51.595Z,61.11
2023-06-05T22:10:18.648Z,61.29
2023-06-05T22:12:45.848Z,61.13
2023-06-05T22:15:14.094Z,60.78
2023-06-05T22:17:40.712Z,60.55
2023-06-05T22:20:08.090Z,60.74
2023-06-05T22:22:35.491Z,61.15
2023-06-05T22:25:02.141Z,60.88
2023-06-05T22:27:28.677Z,60.42
2023-06-05T22:29:55.240Z,60.35
2023-06-05T22:32:21.998Z,60.75
2023-06-05T22:34:50.583Z,61.11
2023-06-05T22:37:18.069Z,61.26
2023-06-05T22:39:44.766Z,60.78
2023-06-05T22:42:11.426Z,61.11
2023-06-05T22:44:37.979Z,61.10
2023-06-05T22:47:04.676Z,61.46
2023-06-05T22:49:31.231Z,61.51
2023-06-05T22:51:58.284Z,61.37
2023-06-05T22:54:25.097Z,61.30
2023-06-05T22:56:51.916Z,61.28
2023-06-05T22:59:18.482Z,62.50
2023-06-05T23:01:47.417Z,61.72
2023-06-05T23:04:14.456Z,63.33
2023-06-05T23:06:42.424Z,63.08
2023-06-05T23:09:09.510Z,62.32
2023-06-05T23:11:36.111Z,61.91
2023-06-05T23:14:02.722Z,62.03
2023-06-05T23:16:29.295Z,62.14
2023-06-05T23:18:55.885Z,63.11
2023-06-05T23:21:22.655Z,62.98
2023-06-05T23:23:49.290Z,62.53
2023-06-05T23:26:15.903Z,62.39
2023-06-05T23:28:42.447Z,62.71
2023-06-05T23:31:09.211Z,62.58
2023-06-05T23:33:36.461Z,63.28
2023-06-05T23:36:03.138Z,62.71
2023-06-05T23:38:29.764Z,62.41
2023-06-05T23:40:57.459Z,62.75
2023-06-05T23:43:25.861Z,63.24
2023-06-05T23:45:52.461Z,62.97
2023-06-05T23:48:19.043Z,62.69
2023-06-05T23:50:45.566Z,62.90
2023-06-05T23:53:13.098Z,62.80
2023-06-05T23:55:40.110Z,62.26
2023-06-05T23:58:06.689Z,62.58
